Serebrjanye Prudy, Russia
Current Conditions -  °F | °C
As of 5:30 PM on Saturday 25 Oct 2014 (Local Time) from UUDD Reporting Station
Clear Clear  
Wind Chill: 21°   Ceiling: Unl
Heat Index: 27°   Visibility: 6mi
Dew Point: 12°   Wind: 4mph
Humidity: 55%   Direction: 240°WSW
Pressure: 30.62"   Gusts: NA
Location:  54.46°N, 38.72°E
Report Text: UUDD 251430Z 24002MPS 220V300 CAVOK M03/M11 Q1037 3201009582010095 NOSIG
Loading
Personal Weather Stations






























Interactive Weather Map
Tropical Storm Tracking
New forecast layout! Learn more

10-Day Weather Forecast

Advertisements
Track Severe Weather on mobile